createdAt,value
2022-08-14T00:01:11.508Z,100956.94
2022-08-14T00:05:18.153Z,100949.59
2022-08-14T00:09:19.690Z,100959.66
2022-08-14T00:13:24.883Z,100956.84
2022-08-14T00:17:26.808Z,100955.22
2022-08-14T00:21:30.954Z,100957.25
2022-08-14T00:25:42.378Z,100950.44
2022-08-14T00:29:44.184Z,100949.59
2022-08-14T00:33:51.516Z,100948.00
2022-08-14T00:37:54.614Z,100944.94
2022-08-14T00:41:57.662Z,100941.00
2022-08-14T00:46:08.171Z,100948.75
2022-08-14T00:50:24.745Z,100937.91
2022-08-14T00:54:27.448Z,100947.16
2022-08-14T00:58:32.948Z,100935.91
2022-08-14T01:02:36.414Z,100933.13
2022-08-14T01:06:39.253Z,100932.59
2022-08-14T01:10:53.412Z,100935.81
2022-08-14T01:14:58.204Z,100921.69
2022-08-14T01:19:19.594Z,100928.91
2022-08-14T01:23:21.675Z,100930.28
2022-08-14T01:27:25.002Z,100928.66
2022-08-14T01:31:30.489Z,100937.16
2022-08-14T01:35:32.193Z,100927.16
2022-08-14T01:39:51.462Z,100929.38
2022-08-14T01:44:00.996Z,100919.03
2022-08-14T01:48:03.036Z,100930.22
2022-08-14T01:52:08.971Z,100929.19
2022-08-14T01:56:20.788Z,100923.34
2022-08-14T02:00:22.462Z,100918.03
2022-08-14T02:04:55.095Z,100923.25
2022-08-14T02:08:56.531Z,100919.03
2022-08-14T02:12:59.439Z,100925.63
2022-08-14T02:17:02.237Z,100916.22
2022-08-14T02:21:04.865Z,100915.81
2022-08-14T02:25:06.879Z,100919.41
2022-08-14T02:29:11.727Z,100913.25
2022-08-14T02:33:13.323Z,100915.53
2022-08-14T02:37:15.952Z,100911.91
2022-08-14T02:41:17.441Z,100906.38
2022-08-14T02:45:22.226Z,100902.19
2022-08-14T02:49:34.295Z,100887.81
2022-08-14T02:53:39.749Z,100895.53
2022-08-14T02:57:44.304Z,100897.56
2022-08-14T03:01:51.239Z,100893.88
2022-08-14T03:05:56.390Z,100891.50
2022-08-14T03:10:26.538Z,100889.09
2022-08-14T03:14:21.450Z,100889.34
2022-08-14T03:18:31.563Z,100890.22
2022-08-14T03:22:33.929Z,100885.78
2022-08-14T03:26:36.549Z,100882.59
2022-08-14T03:30:41.391Z,100876.13
2022-08-14T03:34:48.524Z,100880.38
2022-08-14T03:39:16.002Z,100876.84
2022-08-14T03:43:19.329Z,100881.06
2022-08-14T03:47:20.799Z,100876.91
2022-08-14T03:51:26.922Z,100872.16
2022-08-14T03:55:30.394Z,100868.78
2022-08-14T03:59:33.068Z,100869.53
2022-08-14T04:03:37.339Z,100869.03
2022-08-14T04:07:39.191Z,100865.00
2022-08-14T04:11:51.052Z,100857.63
2022-08-14T04:15:56.621Z,100858.31
2022-08-14T04:20:05.997Z,100859.72
2022-08-14T04:24:07.521Z,100861.81
2022-08-14T04:28:58.794Z,100866.38
2022-08-14T04:32:57.527Z,100867.75
2022-08-14T04:37:22.218Z,100867.91
2022-08-14T04:41:45.253Z,100861.31
2022-08-14T04:45:51.348Z,100865.69
2022-08-14T04:49:57.091Z,100861.44
2022-08-14T04:54:00.581Z,100857.09
2022-08-14T04:58:05.402Z,100855.16
2022-08-14T05:02:08.168Z,100853.78
2022-08-14T05:06:37.614Z,100848.25
2022-08-14T05:10:32.915Z,100859.19
2022-08-14T05:14:46.478Z,100855.88
2022-08-14T05:19:18.036Z,100846.59
2022-08-14T05:23:19.506Z,100846.44
2022-08-14T05:27:22.969Z,100848.47
2022-08-14T05:31:25.211Z,100844.06
2022-08-14T05:35:42.416Z,100845.44
2022-08-14T05:39:44.268Z,100824.78
2022-08-14T05:43:48.009Z,100832.47
2022-08-14T05:47:52.496Z,100835.75
2022-08-14T05:51:53.903Z,100823.41
2022-08-14T05:55:56.130Z,100823.66
2022-08-14T05:59:57.625Z,100826.13
2022-08-14T06:04:01.828Z,100817.13
2022-08-14T06:08:21.843Z,100817.25
2022-08-14T06:12:56.282Z,100805.41
2022-08-14T06:16:57.473Z,100802.53
2022-08-14T06:20:59.662Z,100801.19
2022-08-14T06:25:01.180Z,100797.34
2022-08-14T06:29:03.081Z,100798.34
2022-08-14T06:33:06.831Z,100793.31
2022-08-14T06:37:08.438Z,100795.00
2022-08-14T06:41:11.034Z,100804.72
2022-08-14T06:45:12.541Z,100810.38
2022-08-14T06:49:16.590Z,100812.91
2022-08-14T06:53:19.808Z,100816.44
2022-08-14T06:57:21.681Z,100808.97
2022-08-14T07:01:41.799Z,100806.19
2022-08-14T07:05:55.752Z,100800.63
2022-08-14T07:10:00.663Z,100804.22
2022-08-14T07:14:02.609Z,100790.78
2022-08-14T07:18:08.792Z,100789.22
2022-08-14T07:22:17.578Z,100789.47
2022-08-14T07:26:22.124Z,100783.94
2022-08-14T07:30:34.134Z,100777.94
2022-08-14T07:34:41.231Z,100784.38
2022-08-14T07:38:43.416Z,100785.50
2022-08-14T07:42:54.217Z,100783.81
2022-08-14T07:46:55.757Z,100773.78
2022-08-14T07:51:00.714Z,100770.63
2022-08-14T07:55:06.407Z,100762.53
2022-08-14T07:59:09.028Z,100768.22
2022-08-14T08:03:12.115Z,100771.00
2022-08-14T08:07:15.448Z,100767.13
2022-08-14T08:11:19.512Z,100767.09
2022-08-14T08:15:23.023Z,100757.69
2022-08-14T08:19:25.390Z,100762.50
2022-08-14T08:23:30.316Z,100759.34
2022-08-14T08:27:44.884Z,100755.88
2022-08-14T08:31:52.250Z,100753.56
2022-08-14T08:35:58.260Z,100751.34
2022-08-14T08:40:05.891Z,100745.13
2022-08-14T08:44:17.244Z,100748.16
2022-08-14T08:48:36.570Z,100730.31
2022-08-14T08:52:51.143Z,100740.31
2022-08-14T08:56:57.459Z,100730.97
2022-08-14T09:01:00.578Z,100729.69
2022-08-14T09:05:03.866Z,100725.16
2022-08-14T09:09:27.085Z,100721.72
2022-08-14T09:13:37.938Z,100719.41
2022-08-14T09:17:43.338Z,100709.34
2022-08-14T09:21:47.446Z,100715.75
2022-08-14T09:25:59.018Z,100706.88
2022-08-14T09:30:30.761Z,100709.28
2022-08-14T09:34:58.128Z,100708.47
2022-08-14T09:39:22.871Z,100698.88
2022-08-14T09:43:48.888Z,100697.34
2022-08-14T09:47:53.522Z,100691.66
2022-08-14T09:52:04.224Z,100693.00
2022-08-14T09:56:30.953Z,100680.78
2022-08-14T10:00:43.932Z,100679.50
2022-08-14T10:04:50.032Z,100668.28
2022-08-14T10:08:57.971Z,100677.44
2022-08-14T10:13:01.351Z,100662.47
2022-08-14T10:17:06.247Z,100650.22
2022-08-14T10:21:16.224Z,100647.94
2022-08-14T10:25:18.055Z,100636.63
2022-08-14T10:29:34.575Z,100631.09
2022-08-14T10:33:37.569Z,100626.06
2022-08-14T10:37:44.240Z,100619.97
2022-08-14T10:41:49.274Z,100608.25
2022-08-14T10:46:04.015Z,100586.69
2022-08-14T10:50:38.852Z,100591.66
2022-08-14T10:54:47.457Z,100586.69
2022-08-14T10:58:49.106Z,100583.03
2022-08-14T11:03:00.275Z,100581.44
2022-08-14T11:07:02.220Z,100577.84
2022-08-14T11:11:07.516Z,100576.16
2022-08-14T11:15:10.268Z,100572.22
2022-08-14T11:19:13.482Z,100562.63
2022-08-14T11:23:15.400Z,100559.25
2022-08-14T11:27:20.016Z,100572.59
2022-08-14T11:31:23.955Z,100560.00
2022-08-14T11:35:44.024Z,100561.94
2022-08-14T11:39:49.254Z,100558.84
2022-08-14T11:43:58.566Z,100559.94
2022-08-14T11:49:03.131Z,100555.56
2022-08-14T11:52:40.248Z,100554.44
2022-08-14T11:56:42.234Z,100548.09
2022-08-14T12:01:02.503Z,100548.16
2022-08-14T12:05:04.602Z,100544.41
2022-08-14T12:09:15.140Z,100540.97
2022-08-14T12:13:19.147Z,100539.16
2022-08-14T12:17:25.510Z,100531.69
2022-08-14T12:21:29.517Z,100522.91
2022-08-14T12:25:35.378Z,100522.75
2022-08-14T12:29:36.842Z,100510.84
2022-08-14T12:33:47.020Z,100502.72
2022-08-14T12:37:55.072Z,100492.72
2022-08-14T12:42:01.521Z,100487.75
2022-08-14T12:46:02.971Z,100485.75
2022-08-14T12:50:06.852Z,100483.50
2022-08-14T12:54:28.165Z,100470.22
2022-08-14T12:58:38.068Z,100467.84
2022-08-14T13:02:55.815Z,100460.56
2022-08-14T13:07:08.830Z,100446.09
2022-08-14T13:11:14.876Z,100438.91
2022-08-14T13:15:19.512Z,100437.19
2022-08-14T13:19:24.335Z,100430.19
2022-08-14T13:23:33.255Z,100419.47
2022-08-14T13:27:38.546Z,100415.06
2022-08-14T13:31:45.587Z,100416.25
2022-08-14T13:35:50.331Z,100399.16
2022-08-14T13:39:56.566Z,100395.41
2022-08-14T13:44:00.653Z,100390.09
2022-08-14T13:48:02.516Z,100379.47
2022-08-14T13:52:48.206Z,100373.06
2022-08-14T13:56:36.693Z,100372.06
2022-08-14T14:00:53.138Z,100367.16
2022-08-14T14:05:00.761Z,100353.03
2022-08-14T14:09:03.644Z,100341.66
2022-08-14T14:13:05.789Z,100343.78
2022-08-14T14:17:08.818Z,100337.16
2022-08-14T14:21:13.682Z,100327.78
2022-08-14T14:25:19.565Z,100319.06
2022-08-14T14:29:26.430Z,100322.75
2022-08-14T14:33:49.555Z,100327.44
2022-08-14T14:37:51.964Z,100323.88
2022-08-14T14:41:56.807Z,100311.34
2022-08-14T14:45:58.644Z,100304.19
2022-08-14T14:50:03.781Z,100300.25
2022-08-14T14:54:08.294Z,100295.09
2022-08-14T14:58:10.301Z,100305.78
2022-08-14T15:02:38.131Z,100297.56
2022-08-14T15:06:47.578Z,100290.53
2022-08-14T15:10:49.549Z,100288.06
2022-08-14T15:14:58.059Z,100291.28
2022-08-14T15:19:11.595Z,100293.97
2022-08-14T15:23:16.161Z,100295.91
2022-08-14T15:27:26.136Z,100290.31
2022-08-14T15:31:28.231Z,100276.69
2022-08-14T15:35:33.941Z,100277.88
2022-08-14T15:39:38.451Z,100271.78
2022-08-14T15:43:42.691Z,100271.53
2022-08-14T15:47:47.190Z,100267.06
2022-08-14T15:51:58.033Z,100261.63
2022-08-14T15:55:59.632Z,100259.75
2022-08-14T16:00:40.837Z,100260.69
2022-08-14T16:04:41.306Z,100250.88
2022-08-14T16:08:44.760Z,100244.69
2022-08-14T16:12:47.884Z,100245.25
2022-08-14T16:17:00.321Z,100233.31
2022-08-14T16:21:17.162Z,100224.00
2022-08-14T16:25:21.256Z,100219.44
2022-08-14T16:29:41.898Z,100210.69
2022-08-14T16:33:59.131Z,100197.59
2022-08-14T16:38:03.344Z,100200.53
2022-08-14T16:42:38.625Z,100194.13
2022-08-14T16:46:45.600Z,100198.06
2022-08-14T16:50:50.370Z,100192.72
2022-08-14T16:54:51.953Z,100188.69
2022-08-14T16:59:08.326Z,100185.06
2022-08-14T17:03:11.775Z,100189.78
2022-08-14T17:07:15.281Z,100186.06
2022-08-14T17:11:16.750Z,100181.97
2022-08-14T17:15:19.815Z,100182.06
2022-08-14T17:19:22.448Z,100174.50
2022-08-14T17:23:29.926Z,100170.44
2022-08-14T17:27:32.359Z,100170.47
2022-08-14T17:31:58.727Z,100163.03
2022-08-14T17:36:20.189Z,100163.38
2022-08-14T17:40:29.457Z,100168.47
2022-08-14T17:44:45.799Z,100167.38
2022-08-14T17:49:16.303Z,100157.38
2022-08-14T17:53:09.561Z,100154.41
2022-08-14T17:57:14.926Z,100156.53
2022-08-14T18:01:23.678Z,100155.53
2022-08-14T18:06:09.413Z,100161.53
2022-08-14T18:09:58.657Z,100165.22
2022-08-14T18:14:01.728Z,100175.53
2022-08-14T18:18:06.660Z,100177.22
2022-08-14T18:22:23.915Z,100179.66
2022-08-14T18:26:37.008Z,100201.44
2022-08-14T18:30:40.558Z,100196.09
2022-08-14T18:35:11.408Z,100211.03
2022-08-14T18:39:26.365Z,100217.91
2022-08-14T18:43:44.268Z,100218.44
2022-08-14T18:48:14.875Z,100218.13
2022-08-14T18:52:18.616Z,100219.72
2022-08-14T18:57:09.924Z,100216.81
2022-08-14T19:01:22.931Z,100219.25
2022-08-14T19:05:37.726Z,100225.06
2022-08-14T19:10:00.865Z,100221.81
2022-08-14T19:14:05.272Z,100224.53
2022-08-14T19:18:28.411Z,100224.44
2022-08-14T19:22:32.381Z,100224.94
2022-08-14T19:26:52.002Z,100226.41
2022-08-14T19:31:42.003Z,100230.22
2022-08-14T19:35:55.026Z,100219.84
2022-08-14T19:39:57.773Z,100217.56
2022-08-14T19:44:32.052Z,100212.22
2022-08-14T19:48:34.003Z,100205.72
2022-08-14T19:52:39.905Z,100211.09
2022-08-14T19:56:45.137Z,100209.47
2022-08-14T20:00:56.460Z,100208.72
2022-08-14T20:05:04.300Z,100207.81
2022-08-14T20:11:05.841Z,100206.63
2022-08-14T20:13:33.351Z,100204.56
2022-08-14T20:17:40.334Z,100194.19
2022-08-14T20:22:34.671Z,100201.56
2022-08-14T20:26:30.937Z,100190.16
2022-08-14T20:30:36.109Z,100195.72
2022-08-14T20:34:38.663Z,100192.38
2022-08-14T20:38:59.790Z,100198.19
2022-08-14T20:43:20.245Z,100190.19
2022-08-14T20:47:26.774Z,100196.09
2022-08-14T20:51:58.843Z,100189.50
2022-08-14T20:56:30.070Z,100197.09
2022-08-14T21:00:52.292Z,100197.22
2022-08-14T21:05:34.310Z,100187.09
2022-08-14T21:10:05.814Z,100188.59
2022-08-14T21:14:29.283Z,100185.56
2022-08-14T21:18:34.519Z,100183.94
2022-08-14T21:22:36.870Z,100181.47
2022-08-14T21:26:52.835Z,100182.50
2022-08-14T21:31:00.137Z,100180.94
2022-08-14T21:35:08.236Z,100170.00
2022-08-14T21:39:18.483Z,100176.78
2022-08-14T21:43:24.033Z,100171.25
2022-08-14T21:47:25.498Z,100167.78
2022-08-14T21:51:55.904Z,100178.13
2022-08-14T21:55:49.490Z,100173.09
2022-08-14T21:59:52.792Z,100171.66
2022-08-14T22:03:59.307Z,100170.59
2022-08-14T22:08:06.774Z,100164.53
2022-08-14T22:12:10.033Z,100162.66
2022-08-14T22:17:00.613Z,100165.69
2022-08-14T22:20:34.083Z,100168.09
2022-08-14T22:24:38.721Z,100157.03
2022-08-14T22:28:55.851Z,100159.88
2022-08-14T22:33:00.069Z,100160.50
2022-08-14T22:37:02.276Z,100161.78
2022-08-14T22:41:27.634Z,100155.81
2022-08-14T22:45:36.361Z,100150.75
2022-08-14T22:50:30.302Z,100145.41
2022-08-14T22:54:00.861Z,100144.00
2022-08-14T22:58:06.227Z,100133.19
2022-08-14T23:02:22.253Z,100139.03
2022-08-14T23:07:03.305Z,100143.50
2022-08-14T23:10:54.034Z,100133.38
2022-08-14T23:14:55.909Z,100145.38
2022-08-14T23:18:57.373Z,100135.53
2022-08-14T23:22:59.661Z,100138.97
2022-08-14T23:27:01.193Z,100141.88
2022-08-14T23:31:05.680Z,100130.69
2022-08-14T23:35:08.305Z,100131.91
2022-08-14T23:39:19.091Z,100145.69
2022-08-14T23:43:20.893Z,100132.44
2022-08-14T23:47:26.091Z,100126.06
2022-08-14T23:51:29.132Z,100136.94
2022-08-14T23:55:42.030Z,100125.69
2022-08-14T23:59:45.157Z,100127.75
